Delta Poseidon — SVBF6 — position and weather

sailwx.info

Track history (hours):
 
Tides and Currents Weather Stations Pressure Air Temp Water Temp Dewpoint Dewpoint Depression Visibility Wind Speed Wind Dir Waves Ship Positions

Delta Poseidon

Last reported at 2016-Aug-29 17:31 UTC. Time now 2016-Aug-29 18:03 UTC.
Position N 36°55' E 001°02'.

Length 274 m; draft 9 m.

Type: Tanker. MMSI: 241086000.

Date/timePositionNaut miles runAvg speedWind from/ knotsBaromVisibWave heightAir tempDewpointWater temp
2016-Aug-29 17:31N 36°55' E 001°02'32 9.4
2016-Aug-29 14:08N 36°48' E 000°24'6 9.5
2016-Aug-29 13:33N 36°47' E 000°17'9 9.4
2016-Aug-29 12:33N 36°45' E 000°05'9 8.8
2016-Aug-29 11:33N 36°43' W 000°05'9 8.9
2016-Aug-29 10:33N 36°41' W 000°16'12 9.2
2016-Aug-29 09:16N 36°39' W 000°31'6 9.0
2016-Aug-29 08:33N 36°37' W 000°38'9 9.5
2016-Aug-29 07:33N 36°34' W 000°50'10 9.5
2016-Aug-29 06:33N 36°33' W 001°01'10 9.6
2016-Aug-29 05:33N 36°31' W 001°13'9 9.5
2016-Aug-29 04:33N 36°29' W 001°25'10 9.7
2016-Aug-29 03:33N 36°27' W 001°36'10 9.7
2016-Aug-29 02:34N 36°25' W 001°48'1010.0
2016-Aug-29 01:33N 36°24' W 002°01'10 9.8
2016-Aug-29 00:33N 36°22' W 002°13'9 9.5
2016-Aug-28 23:34N 36°20' W 002°24'10 9.5
2016-Aug-28 22:33N 36°19' W 002°36'10 9.7
2016-Aug-28 21:33N 36°18' W 002°48'1310.2
2016-Aug-28 20:16N 36°17' W 003°04'7 9.8
2016-Aug-28 19:33N 36°15' W 003°13'10 9.9
2016-Aug-28 18:34N 36°13' W 003°25'1310.5
2016-Aug-28 17:17N 36°11' W 003°41'7511.2
2016-Aug-28 10:33N 36°01' W 005°13'1110.8
2016-Aug-28 09:33N 35°57' W 005°26'1110.3
2016-Aug-28 08:29N 35°54' W 005°39'8 8.5
2016-Aug-28 07:33N 35°54' W 005°49'9 8.8
2016-Aug-28 06:33N 35°54' W 005°60'10 9.4
2016-Aug-28 05:30N 35°53' W 006°12'77 9.7
2016-Aug-27 21:33N 35°24' W 007°40'10 9.9
2016-Aug-27 20:33N 35°21' W 007°51'10 9.8
2016-Aug-27 19:33N 35°17' W 008°02'  
2016-Aug-24 22:16N 37°01' W 011°34'4 2.3
2016-Aug-24 20:33N 37°04' W 011°30'2 2.1
2016-Aug-24 19:33N 37°05' W 011°28'2 2.0
2016-Aug-24 18:33N 37°06' W 011°26'2 2.0
2016-Aug-24 17:33N 37°07' W 011°24'2 1.9
2016-Aug-24 16:33N 37°09' W 011°22'2 2.0
2016-Aug-24 15:33N 37°10' W 011°20'2 1.8
2016-Aug-24 14:33N 37°11' W 011°18'2 1.8
2016-Aug-24 13:33N 37°12' W 011°16'2 1.8
2016-Aug-24 12:24N 37°13' W 011°14'2 1.8
2016-Aug-24 11:33N 37°14' W 011°13'2 2.0
2016-Aug-24 10:33N 37°15' W 011°11'2 1.9
2016-Aug-24 09:32N 37°16' W 011°09'2 2.0
2016-Aug-24 08:33N 37°18' W 011°07'2 2.0
2016-Aug-24 07:33N 37°19' W 011°05'2 2.2
2016-Aug-24 06:33N 37°20' W 011°03'4 2.2
2016-Aug-24 04:33N 37°23' W 010°58'2 2.3
2016-Aug-24 03:33N 37°25' W 010°56'2 2.3
2016-Aug-24 02:33N 37°26' W 010°54'2 2.3
2016-Aug-24 01:28N 37°28' W 010°52'2 2.2
2016-Aug-24 00:33N 37°29' W 010°50'2 2.1
2016-Aug-23 23:33N 37°30' W 010°48'2 2.1
2016-Aug-23 22:33N 37°32' W 010°46'2 1.8
2016-Aug-23 21:33N 37°33' W 010°44'2 1.6
2016-Aug-23 20:33N 37°34' W 010°43'2 1.8
2016-Aug-23 19:32N 37°36' W 010°41'2 1.6
2016-Aug-23 18:33N 37°37' W 010°40'2 1.8
2016-Aug-23 17:33N 37°38' W 010°38'2 1.8
2016-Aug-23 16:33N 37°39' W 010°36'2 2.0
2016-Aug-23 15:33N 37°40' W 010°34'2 2.2
2016-Aug-23 14:33N 37°41' W 010°32'2 2.0
2016-Aug-23 13:33N 37°43' W 010°30'2 1.8
2016-Aug-23 12:33N 37°44' W 010°28'2 1.8
2016-Aug-23 11:33N 37°45' W 010°26'2 1.8
2016-Aug-23 10:33N 37°46' W 010°25'2 1.7
2016-Aug-23 09:33N 37°47' W 010°23'1 1.5
2016-Aug-23 08:33N 37°49' W 010°22'2 1.6
2016-Aug-23 07:34N 37°49' W 010°20'4 4.2
2016-Aug-23 06:33N 37°49' W 010°15'9 9.4
2016-Aug-23 05:33N 37°49' W 010°03'10 9.5
2016-Aug-23 04:33N 37°49' W 009°51'9 9.4
2016-Aug-23 03:33N 37°52' W 009°40'9 9.4
2016-Aug-23 02:33N 37°53' W 009°28'10 9.6
2016-Aug-23 01:33N 37°54' W 009°16'9 9.1
2016-Aug-23 00:33N 37°54' W 009°04'9 9.2
2016-Aug-22 23:33N 37°56' W 008°53'1 1.1
2016-Aug-22 22:31N 37°57' W 008°53'0 0.0
2016-Aug-22 21:28N 37°57' W 008°53'0 0.0
2016-Aug-22 20:31N 37°57' W 008°53'0 0.0
2016-Aug-22 19:31N 37°57' W 008°53'0 0.0
2016-Aug-22 18:31N 37°57' W 008°53'0 0.0
2016-Aug-22 17:31N 37°57' W 008°53'0 0.0
2016-Aug-22 16:31N 37°57' W 008°53'0 0.0
2016-Aug-22 15:31N 37°57' W 008°53'0 0.0
2016-Aug-22 14:25N 37°57' W 008°53'0 0.0
2016-Aug-22 13:31N 37°57' W 008°53'0 0.0
2016-Aug-22 12:31N 37°57' W 008°53'0 0.0
2016-Aug-22 11:31N 37°57' W 008°53'0 0.0
2016-Aug-22 10:31N 37°57' W 008°53'0 0.0
2016-Aug-22 09:31N 37°57' W 008°53'0 0.0
2016-Aug-22 08:31N 37°57' W 008°53'0 0.0
2016-Aug-22 07:31N 37°57' W 008°53'0 0.0
2016-Aug-22 06:31N 37°57' W 008°53'0 0.0
2016-Aug-22 05:31N 37°57' W 008°53'0 0.0
2016-Aug-22 04:28N 37°57' W 008°53'0 0.0
2016-Aug-22 03:28N 37°57' W 008°53'0 0.0
2016-Aug-22 02:31N 37°57' W 008°53'0 0.0
2016-Aug-22 01:31N 37°57' W 008°53'0 0.0
2016-Aug-22 00:31N 37°57' W 008°53'0 0.0
2016-Aug-21 23:31N 37°57' W 008°53'0 0.0
2016-Aug-21 22:31N 37°57' W 008°53'0 0.0
2016-Aug-21 21:31N 37°57' W 008°53'0 0.0
2016-Aug-21 20:31N 37°57' W 008°53'0 0.0
2016-Aug-21 19:31N 37°57' W 008°53'0 0.0
2016-Aug-21 18:31N 37°57' W 008°53'0 0.0
2016-Aug-21 17:31N 37°57' W 008°53'0 0.0
2016-Aug-21 16:31N 37°57' W 008°53'0 0.0
2016-Aug-21 15:31N 37°57' W 008°53'0 0.0
2016-Aug-21 14:28N 37°57' W 008°53'0 0.0
2016-Aug-21 13:31N 37°57' W 008°53'0 0.0
2016-Aug-21 12:31N 37°57' W 008°53'0 0.0
2016-Aug-21 11:31N 37°57' W 008°53'0 0.0
2016-Aug-21 10:31N 37°57' W 008°53'0 0.0
2016-Aug-21 09:31N 37°57' W 008°53'0 0.0
2016-Aug-21 08:31N 37°57' W 008°53'0 0.0
2016-Aug-21 07:31N 37°57' W 008°53'0 0.0
2016-Aug-21 06:31N 37°57' W 008°53'2 2.6
2016-Aug-21 05:33N 37°54' W 008°53'2 1.7
2016-Aug-21 04:30N 37°53' W 008°52'0 0.2
2016-Aug-21 03:33N 37°53' W 008°52'0 0.0
2016-Aug-21 02:33N 37°53' W 008°52'0 0.0
2016-Aug-21 01:33N 37°53' W 008°52'0 0.0
2016-Aug-21 00:33N 37°53' W 008°52'0 0.0
2016-Aug-20 23:33N 37°53' W 008°52'0 0.0
2016-Aug-20 22:30N 37°53' W 008°52'0 0.0
2016-Aug-20 21:33N 37°53' W 008°52'0 0.0
2016-Aug-20 20:33N 37°53' W 008°52'0 0.0
2016-Aug-20 19:33N 37°53' W 008°52'0 0.0
2016-Aug-20 18:27N 37°53' W 008°52'0 0.0
2016-Aug-20 17:33N 37°53' W 008°52'0 0.0
2016-Aug-20 16:33N 37°53' W 008°52'0 0.0
2016-Aug-20 15:33N 37°53' W 008°52'0 0.1
2016-Aug-20 14:33N 37°53' W 008°52'0 0.0
2016-Aug-20 13:33N 37°53' W 008°52'0 0.0
2016-Aug-20 12:33N 37°53' W 008°52'0 0.1
2016-Aug-20 11:33N 37°53' W 008°52'0 0.0
2016-Aug-20 10:33N 37°53' W 008°52'0 0.0
2016-Aug-20 09:33N 37°53' W 008°52'0 0.0
2016-Aug-20 08:33N 37°53' W 008°52'0 0.0
2016-Aug-20 07:33N 37°53' W 008°52'0 0.0
2016-Aug-20 06:33N 37°53' W 008°52'0 0.0
2016-Aug-20 05:33N 37°53' W 008°52'0 0.0
2016-Aug-20 04:33N 37°53' W 008°52'0 0.0
2016-Aug-20 03:33N 37°53' W 008°52'0 0.1
2016-Aug-20 02:33N 37°53' W 008°52'0 0.0
2016-Aug-20 01:33N 37°53' W 008°52'0 0.0
2016-Aug-20 00:33N 37°53' W 008°52'0 0.0
2016-Aug-19 23:33N 37°53' W 008°52'0 0.0
2016-Aug-19 22:33N 37°53' W 008°52'0 0.0
2016-Aug-19 21:33N 37°53' W 008°52'0 0.0
2016-Aug-19 20:33N 37°53' W 008°52'0 0.0
2016-Aug-19 19:33N 37°53' W 008°52'0 0.0
2016-Aug-19 18:33N 37°53' W 008°52'0 0.1
2016-Aug-19 17:33N 37°53' W 008°52'  
Track history (hours):
 
Tides and Currents Weather Stations Pressure Air Temp Water Temp Dewpoint Dewpoint Depression Visibility Wind Speed Wind Dir Waves Ship Positions

Delta Poseidon

Last reported at 2016-Aug-29 17:31 UTC. Time now 2016-Aug-29 18:03 UTC.
Position N 36°55' E 001°02'.

Length 274 m; draft 9 m.

Type: Tanker. MMSI: 241086000.

Date/timePositionNaut miles runAvg speedWind from/ knotsBaromVisibWave heightAir tempDewpointWater temp
2016-Aug-29 17:31N 36°55' E 001°02'32 9.4
2016-Aug-29 14:08N 36°48' E 000°24'6 9.5
2016-Aug-29 13:33N 36°47' E 000°17'9 9.4
2016-Aug-29 12:33N 36°45' E 000°05'9 8.8
2016-Aug-29 11:33N 36°43' W 000°05'9 8.9
2016-Aug-29 10:33N 36°41' W 000°16'12 9.2
2016-Aug-29 09:16N 36°39' W 000°31'6 9.0
2016-Aug-29 08:33N 36°37' W 000°38'9 9.5
2016-Aug-29 07:33N 36°34' W 000°50'10 9.5
2016-Aug-29 06:33N 36°33' W 001°01'10 9.6
2016-Aug-29 05:33N 36°31' W 001°13'9 9.5
2016-Aug-29 04:33N 36°29' W 001°25'10 9.7
2016-Aug-29 03:33N 36°27' W 001°36'10 9.7
2016-Aug-29 02:34N 36°25' W 001°48'1010.0
2016-Aug-29 01:33N 36°24' W 002°01'10 9.8
2016-Aug-29 00:33N 36°22' W 002°13'9 9.5
2016-Aug-28 23:34N 36°20' W 002°24'10 9.5
2016-Aug-28 22:33N 36°19' W 002°36'10 9.7
2016-Aug-28 21:33N 36°18' W 002°48'1310.2
2016-Aug-28 20:16N 36°17' W 003°04'7 9.8
2016-Aug-28 19:33N 36°15' W 003°13'10 9.9
2016-Aug-28 18:34N 36°13' W 003°25'1310.5
2016-Aug-28 17:17N 36°11' W 003°41'7511.2
2016-Aug-28 10:33N 36°01' W 005°13'1110.8
2016-Aug-28 09:33N 35°57' W 005°26'1110.3
2016-Aug-28 08:29N 35°54' W 005°39'8 8.5
2016-Aug-28 07:33N 35°54' W 005°49'9 8.8
2016-Aug-28 06:33N 35°54' W 005°60'10 9.4
2016-Aug-28 05:30N 35°53' W 006°12'77 9.7
2016-Aug-27 21:33N 35°24' W 007°40'10 9.9
2016-Aug-27 20:33N 35°21' W 007°51'10 9.8
2016-Aug-27 19:33N 35°17' W 008°02'  
2016-Aug-24 22:16N 37°01' W 011°34'4 2.3
2016-Aug-24 20:33N 37°04' W 011°30'2 2.1
2016-Aug-24 19:33N 37°05' W 011°28'2 2.0
2016-Aug-24 18:33N 37°06' W 011°26'2 2.0
2016-Aug-24 17:33N 37°07' W 011°24'2 1.9
2016-Aug-24 16:33N 37°09' W 011°22'2 2.0
2016-Aug-24 15:33N 37°10' W 011°20'2 1.8
2016-Aug-24 14:33N 37°11' W 011°18'2 1.8
2016-Aug-24 13:33N 37°12' W 011°16'2 1.8
2016-Aug-24 12:24N 37°13' W 011°14'2 1.8
2016-Aug-24 11:33N 37°14' W 011°13'2 2.0
2016-Aug-24 10:33N 37°15' W 011°11'2 1.9
2016-Aug-24 09:32N 37°16' W 011°09'2 2.0
2016-Aug-24 08:33N 37°18' W 011°07'2 2.0
2016-Aug-24 07:33N 37°19' W 011°05'2 2.2
2016-Aug-24 06:33N 37°20' W 011°03'4 2.2
2016-Aug-24 04:33N 37°23' W 010°58'2 2.3
2016-Aug-24 03:33N 37°25' W 010°56'2 2.3
2016-Aug-24 02:33N 37°26' W 010°54'2 2.3
2016-Aug-24 01:28N 37°28' W 010°52'2 2.2
2016-Aug-24 00:33N 37°29' W 010°50'2 2.1
2016-Aug-23 23:33N 37°30' W 010°48'2 2.1
2016-Aug-23 22:33N 37°32' W 010°46'2 1.8
2016-Aug-23 21:33N 37°33' W 010°44'2 1.6
2016-Aug-23 20:33N 37°34' W 010°43'2 1.8
2016-Aug-23 19:32N 37°36' W 010°41'2 1.6
2016-Aug-23 18:33N 37°37' W 010°40'2 1.8
2016-Aug-23 17:33N 37°38' W 010°38'2 1.8
2016-Aug-23 16:33N 37°39' W 010°36'2 2.0
2016-Aug-23 15:33N 37°40' W 010°34'2 2.2
2016-Aug-23 14:33N 37°41' W 010°32'2 2.0
2016-Aug-23 13:33N 37°43' W 010°30'2 1.8
2016-Aug-23 12:33N 37°44' W 010°28'2 1.8
2016-Aug-23 11:33N 37°45' W 010°26'2 1.8
2016-Aug-23 10:33N 37°46' W 010°25'2 1.7
2016-Aug-23 09:33N 37°47' W 010°23'1 1.5
2016-Aug-23 08:33N 37°49' W 010°22'2 1.6
2016-Aug-23 07:34N 37°49' W 010°20'4 4.2
2016-Aug-23 06:33N 37°49' W 010°15'9 9.4
2016-Aug-23 05:33N 37°49' W 010°03'10 9.5
2016-Aug-23 04:33N 37°49' W 009°51'9 9.4
2016-Aug-23 03:33N 37°52' W 009°40'9 9.4
2016-Aug-23 02:33N 37°53' W 009°28'10 9.6
2016-Aug-23 01:33N 37°54' W 009°16'9 9.1
2016-Aug-23 00:33N 37°54' W 009°04'9 9.2
2016-Aug-22 23:33N 37°56' W 008°53'1 1.1
2016-Aug-22 22:31N 37°57' W 008°53'0 0.0
2016-Aug-22 21:28N 37°57' W 008°53'0 0.0
2016-Aug-22 20:31N 37°57' W 008°53'0 0.0
2016-Aug-22 19:31N 37°57' W 008°53'0 0.0
2016-Aug-22 18:31N 37°57' W 008°53'0 0.0
2016-Aug-22 17:31N 37°57' W 008°53'0 0.0
2016-Aug-22 16:31N 37°57' W 008°53'0 0.0
2016-Aug-22 15:31N 37°57' W 008°53'0 0.0
2016-Aug-22 14:25N 37°57' W 008°53'0 0.0
2016-Aug-22 13:31N 37°57' W 008°53'0 0.0
2016-Aug-22 12:31N 37°57' W 008°53'0 0.0
2016-Aug-22 11:31N 37°57' W 008°53'0 0.0
2016-Aug-22 10:31N 37°57' W 008°53'0 0.0
2016-Aug-22 09:31N 37°57' W 008°53'0 0.0
2016-Aug-22 08:31N 37°57' W 008°53'0 0.0
2016-Aug-22 07:31N 37°57' W 008°53'0 0.0
2016-Aug-22 06:31N 37°57' W 008°53'0 0.0
2016-Aug-22 05:31N 37°57' W 008°53'0 0.0
2016-Aug-22 04:28N 37°57' W 008°53'0 0.0
2016-Aug-22 03:28N 37°57' W 008°53'0 0.0
2016-Aug-22 02:31N 37°57' W 008°53'0 0.0
2016-Aug-22 01:31N 37°57' W 008°53'0 0.0
2016-Aug-22 00:31N 37°57' W 008°53'0 0.0
2016-Aug-21 23:31N 37°57' W 008°53'0 0.0
2016-Aug-21 22:31N 37°57' W 008°53'0 0.0
2016-Aug-21 21:31N 37°57' W 008°53'0 0.0
2016-Aug-21 20:31N 37°57' W 008°53'0 0.0
2016-Aug-21 19:31N 37°57' W 008°53'0 0.0
2016-Aug-21 18:31N 37°57' W 008°53'0 0.0
2016-Aug-21 17:31N 37°57' W 008°53'0 0.0
2016-Aug-21 16:31N 37°57' W 008°53'0 0.0
2016-Aug-21 15:31N 37°57' W 008°53'0 0.0
2016-Aug-21 14:28N 37°57' W 008°53'0 0.0
2016-Aug-21 13:31N 37°57' W 008°53'0 0.0
2016-Aug-21 12:31N 37°57' W 008°53'0 0.0
2016-Aug-21 11:31N 37°57' W 008°53'0 0.0
2016-Aug-21 10:31N 37°57' W 008°53'0 0.0
2016-Aug-21 09:31N 37°57' W 008°53'0 0.0
2016-Aug-21 08:31N 37°57' W 008°53'0 0.0
2016-Aug-21 07:31N 37°57' W 008°53'0 0.0
2016-Aug-21 06:31N 37°57' W 008°53'2 2.6
2016-Aug-21 05:33N 37°54' W 008°53'2 1.7
2016-Aug-21 04:30N 37°53' W 008°52'0 0.2
2016-Aug-21 03:33N 37°53' W 008°52'0 0.0
2016-Aug-21 02:33N 37°53' W 008°52'0 0.0
2016-Aug-21 01:33N 37°53' W 008°52'0 0.0
2016-Aug-21 00:33N 37°53' W 008°52'0 0.0
2016-Aug-20 23:33N 37°53' W 008°52'0 0.0
2016-Aug-20 22:30N 37°53' W 008°52'0 0.0
2016-Aug-20 21:33N 37°53' W 008°52'0 0.0
2016-Aug-20 20:33N 37°53' W 008°52'0 0.0
2016-Aug-20 19:33N 37°53' W 008°52'0 0.0
2016-Aug-20 18:27N 37°53' W 008°52'0 0.0
2016-Aug-20 17:33N 37°53' W 008°52'0 0.0
2016-Aug-20 16:33N 37°53' W 008°52'0 0.0
2016-Aug-20 15:33N 37°53' W 008°52'0 0.1
2016-Aug-20 14:33N 37°53' W 008°52'0 0.0
2016-Aug-20 13:33N 37°53' W 008°52'0 0.0
2016-Aug-20 12:33N 37°53' W 008°52'0 0.1
2016-Aug-20 11:33N 37°53' W 008°52'0 0.0
2016-Aug-20 10:33N 37°53' W 008°52'0 0.0
2016-Aug-20 09:33N 37°53' W 008°52'0 0.0
2016-Aug-20 08:33N 37°53' W 008°52'0 0.0
2016-Aug-20 07:33N 37°53' W 008°52'0 0.0
2016-Aug-20 06:33N 37°53' W 008°52'0 0.0
2016-Aug-20 05:33N 37°53' W 008°52'0 0.0
2016-Aug-20 04:33N 37°53' W 008°52'0 0.0
2016-Aug-20 03:33N 37°53' W 008°52'0 0.1
2016-Aug-20 02:33N 37°53' W 008°52'0 0.0
2016-Aug-20 01:33N 37°53' W 008°52'0 0.0
2016-Aug-20 00:33N 37°53' W 008°52'0 0.0
2016-Aug-19 23:33N 37°53' W 008°52'0 0.0
2016-Aug-19 22:33N 37°53' W 008°52'0 0.0
2016-Aug-19 21:33N 37°53' W 008°52'0 0.0
2016-Aug-19 20:33N 37°53' W 008°52'0 0.0
2016-Aug-19 19:33N 37°53' W 008°52'0 0.0
2016-Aug-19 18:33N 37°53' W 008°52'0 0.1
2016-Aug-19 17:33N 37°53' W 008°52'  

Dump ship's entire track history